Time;durP1;ratioP1;P1;durP2;ratioP2;P2;SDS_P1;SDS_P2;PMS_P1;PMS_P2;Temp;Humidity;BMP_temperature;BMP_pressure;BME280_temperature;BME280_humidity;BME280_pressure;Samples;Min_cycle;Max_cycle;Signal;HPM_P1;HPM_P2
2022/01/22 00:00:55;;;;;;;5.93;2.55;;;;;;;-8.25;96.98;95250.84;5067762;28;20089;-49
2022/01/22 00:03:23;;;;;;;4.05;1.92;;;;;;;-8.27;97.14;95243.38;5065607;28;20062;-48
2022/01/22 00:05:50;;;;;;;3.13;1.65;;;;;;;-8.22;97.56;95239.72;5069254;28;20053;-48
2022/01/22 00:08:17;;;;;;;12.90;1.70;;;;;;;-8.13;97.88;95244.16;5063521;28;20045;-48
2022/01/22 00:10:44;;;;;;;6.72;2.50;;;;;;;-8.31;97.99;95206.59;5065046;28;20040;-47
2022/01/22 00:15:46;;;;;;;1.48;1.13;;;;;;;-8.09;97.50;95235.44;5064796;28;20040;-47
2022/01/22 00:18:13;;;;;;;5.30;2.30;;;;;;;-8.10;97.57;95241.41;5064890;28;20040;-49
2022/01/22 00:20:40;;;;;;;6.70;2.03;;;;;;;-8.06;98.03;95242.81;5070224;28;20044;-47
2022/01/22 00:23:07;;;;;;;1.35;1.23;;;;;;;-8.03;98.15;95240.06;5074304;28;20093;-47
2022/01/22 00:25:34;;;;;;;4.15;1.80;;;;;;;-8.06;98.37;95232.69;5066615;28;20048;-48
2022/01/22 00:28:01;;;;;;;3.42;1.75;;;;;;;-7.97;98.29;95239.63;5065298;28;20068;-47
2022/01/22 00:30:28;;;;;;;5.18;1.55;;;;;;;-7.99;98.55;95233.88;5065268;28;20040;-48
2022/01/22 00:32:55;;;;;;;4.22;2.72;;;;;;;-8.02;98.52;95230.75;5065473;28;20040;-50
2022/01/22 00:35:23;;;;;;;4.50;3.05;;;;;;;-8.00;98.55;95228.94;5065749;28;20047;-48
2022/01/22 00:37:52;;;;;;;3.97;2.58;;;;;;;-8.00;98.25;95227.19;5066366;28;20045;-47
2022/01/22 00:40:20;;;;;;;2.60;1.20;;;;;;;-8.04;98.27;95233.38;5063306;28;20048;-47
2022/01/22 00:42:47;;;;;;;5.43;2.15;;;;;;;-8.04;98.26;95243.50;5064655;28;20498;-48
2022/01/22 00:45:15;;;;;;;8.98;3.60;;;;;;;-8.07;98.12;95233.59;5064908;28;20043;-46
2022/01/22 00:47:42;;;;;;;3.58;1.77;;;;;;;-8.11;98.31;95227.94;5064372;28;20040;-48
2022/01/22 00:50:12;;;;;;;4.60;2.33;;;;;;;-8.13;98.33;95232.31;5064620;28;20040;-48
2022/01/22 00:52:41;;;;;;;4.80;2.40;;;;;;;-8.19;97.99;95232.75;5065942;28;20376;-46
2022/01/22 00:55:09;;;;;;;10.77;3.00;;;;;;;-8.32;97.28;95227.72;5066864;28;20695;-47
2022/01/22 00:57:36;;;;;;;3.13;1.83;;;;;;;-8.46;96.71;95232.97;5065271;28;20044;-49
2022/01/22 01:00:09;;;;;;;4.38;3.53;;;;;;;-8.69;97.01;95230.25;5065969;28;20047;-47
2022/01/22 01:02:37;;;;;;;4.35;2.95;;;;;;;-8.61;97.31;95228.94;5070492;28;20038;-47
2022/01/22 01:05:07;;;;;;;34.33;11.27;;;;;;;-8.65;97.65;95229.13;5065439;28;20824;-52
2022/01/22 01:07:35;;;;;;;26.85;14.55;;;;;;;-8.61;97.75;95223.88;5064052;28;20136;-47
2022/01/22 01:10:04;;;;;;;11.52;6.53;;;;;;;-8.68;97.87;95224.31;5064507;28;20048;-48
2022/01/22 01:12:31;;;;;;;10.95;6.72;;;;;;;-8.72;98.08;95212.78;5065901;28;20048;-47
2022/01/22 01:34:11;;;;;;;1.27;1.17;;;;;;;-9.17;97.94;95196.47;5063643;28;20041;-46
2022/01/22 01:36:40;;;;;;;3.05;2.47;;;;;;;-9.24;98.16;95201.94;5061361;28;20132;-47
2022/01/22 01:39:12;;;;;;;5.22;1.75;;;;;;;-9.22;98.22;95194.25;5063418;28;20113;-47
2022/01/22 01:44:19;;;;;;;1.48;1.33;;;;;;;-9.17;98.85;95187.19;5062076;28;20064;-47
2022/01/22 01:47:03;;;;;;;2.75;2.05;;;;;;;-9.13;98.74;95188.59;5061792;28;20044;-47
2022/01/22 01:49:34;;;;;;;5.22;1.17;;;;;;;-9.11;98.68;95186.78;5062497;28;20572;-46
2022/01/22 01:52:06;;;;;;;3.00;1.33;;;;;;;-9.14;98.40;95192.03;5061906;28;20036;-47
2022/01/22 01:54:47;;;;;;;1.95;1.38;;;;;;;-9.12;98.20;95182.63;5062657;28;20056;-47
2022/01/22 01:57:33;;;;;;;1.83;1.17;;;;;;;-9.15;97.90;95187.88;5061856;28;20498;-48
2022/01/22 02:00:00;;;;;;;3.40;2.08;;;;;;;-9.17;97.69;95182.13;5069838;28;20051;-47
2022/01/22 02:02:45;;;;;;;2.47;1.50;;;;;;;-9.21;97.78;95185.78;5062166;28;22508;-47
2022/01/22 02:05:17;;;;;;;2.33;1.75;;;;;;;-9.26;97.69;95177.69;5063785;28;20052;-48
2022/01/22 02:07:45;;;;;;;2.25;1.98;;;;;;;-9.42;97.75;95158.53;5061927;28;20430;-47
2022/01/22 02:10:21;;;;;;;2.92;1.83;;;;;;;-9.36;97.90;95176.69;5067961;28;20514;-48
2022/01/22 02:23:59;;;;;;;1.23;0.88;;;;;;;-9.70;98.24;95178.91;5062173;28;20045;-48
2022/01/22 02:26:28;;;;;;;4.15;1.45;;;;;;;-9.82;98.28;95156.06;5062955;28;20052;-46
2022/01/22 02:28:56;;;;;;;1.77;0.90;;;;;;;-9.80;98.37;95168.56;5061920;28;20787;-50
2022/01/22 02:31:42;;;;;;;2.22;1.88;;;;;;;-9.80;98.72;95164.34;5061521;28;20051;-47
2022/01/22 02:34:23;;;;;;;2.15;1.63;;;;;;;-9.84;99.03;95159.59;5062173;28;20452;-52
2022/01/22 02:39:25;;;;;;;1.52;1.02;;;;;;;-9.87;98.88;95163.13;5062300;28;20045;-48
2022/01/22 02:41:52;;;;;;;1.20;0.95;;;;;;;-9.95;98.73;95167.84;5062549;28;20041;-47
2022/01/22 02:44:33;;;;;;;4.40;2.30;;;;;;;-10.03;98.57;95165.00;5065697;28;20462;-47
2022/01/22 02:47:06;;;;;;;1.30;0.82;;;;;;;-10.18;98.52;95154.97;5062002;28;20044;-48
2022/01/22 02:49:36;;;;;;;1.08;0.98;;;;;;;-10.24;98.50;95160.41;5061985;28;20055;-46
2022/01/22 02:52:08;;;;;;;1.77;0.85;;;;;;;-10.36;98.80;95156.16;5064951;28;20414;-48
2022/01/22 02:54:38;;;;;;;1.08;0.80;;;;;;;-10.36;99.28;95162.94;5060152;28;20143;-47
2022/01/22 02:57:08;;;;;;;10.30;4.72;;;;;;;-10.29;99.81;95157.38;5061166;28;20047;-46
2022/01/22 02:59:35;;;;;;;28.35;11.65;;;;;;;-10.19;100.00;95150.88;5061479;28;20040;-47
2022/01/22 03:02:04;;;;;;;16.45;8.30;;;;;;;-10.14;100.00;95154.78;5068724;28;20036;-47
2022/01/22 03:04:31;;;;;;;13.40;5.45;;;;;;;-10.05;100.00;95141.63;5064070;28;20043;-47
2022/01/22 03:06:59;;;;;;;4.15;2.85;;;;;;;-9.91;100.00;95141.53;5063070;28;20490;-48
2022/01/22 03:09:29;;;;;;;3.28;1.35;;;;;;;-9.64;100.00;95133.09;5065470;28;20558;-48
2022/01/22 03:27:50;;;;;;;3.20;1.95;;;;;;;-9.04;100.00;95127.44;5063628;28;20055;-46
2022/01/22 03:30:17;;;;;;;3.00;1.33;;;;;;;-9.05;100.00;95113.19;5064199;28;20045;-48
2022/01/22 03:32:49;;;;;;;3.28;2.40;;;;;;;-8.92;100.00;95119.94;5062660;28;20044;-48
2022/01/22 03:37:52;;;;;;;3.72;2.08;;;;;;;-8.70;100.00;95115.00;5061834;28;20040;-48
2022/01/22 03:40:22;;;;;;;2.25;1.15;;;;;;;-8.60;100.00;95114.38;5061435;28;20045;-48
2022/01/22 03:42:53;;;;;;;2.00;1.60;;;;;;;-8.57;100.00;95101.53;5063358;28;20410;-47
2022/01/22 03:45:23;;;;;;;0.88;0.88;;;;;;;-8.66;100.00;95091.16;5061899;28;20048;-49
2022/01/22 03:47:52;;;;;;;4.95;2.75;;;;;;;-8.60;99.99;95105.06;5061161;28;20053;-49
2022/01/22 03:50:20;;;;;;;6.05;1.80;;;;;;;-8.66;99.62;95116.41;5060692;28;20046;-49
2022/01/22 03:52:49;;;;;;;3.00;2.65;;;;;;;-8.83;99.05;95104.13;5064300;28;20044;-48
2022/01/22 03:55:37;;;;;;;1.60;1.50;;;;;;;-8.98;98.69;95106.00;5059868;28;20048;-48
2022/01/22 03:58:39;;;;;;;1.75;0.57;;;;;;;-9.07;99.66;95109.97;5032365;28;20126;-47
2022/01/22 04:02:51;;;;;;;3.70;2.13;;;;;;;-9.12;100.00;95113.72;5064364;28;20126;-48
2022/01/22 04:04:34;;;;;;;6.20;2.10;;;;;;;-9.14;100.00;95118.84;5059897;28;20130;-49
2022/01/22 04:09:31;;;;;;;2.22;1.13;;;;;;;-9.20;100.00;95114.22;5062883;28;20059;-47
2022/01/22 04:12:00;;;;;;;5.60;1.58;;;;;;;-9.20;100.00;95106.66;5061262;28;20119;-47
2022/01/22 04:14:32;;;;;;;2.30;1.60;;;;;;;-9.22;100.00;95110.97;5065992;28;20053;-48
2022/01/22 04:25:02;;;;;;;4.05;2.00;;;;;;;-9.13;100.00;95107.84;5070764;28;20089;-47
2022/01/22 04:27:29;;;;;;;1.58;1.02;;;;;;;-9.07;100.00;95107.44;5068039;28;20115;-47
2022/01/22 04:29:58;;;;;;;0.85;0.70;;;;;;;-9.00;100.00;95112.06;5070574;28;20051;-48
2022/01/22 04:32:26;;;;;;;3.33;1.20;;;;;;;-8.91;100.00;95111.41;5065090;28;20433;-47
2022/01/22 04:34:54;;;;;;;3.13;1.83;;;;;;;-8.82;100.00;95110.81;5065287;28;20040;-49
2022/01/22 04:37:24;;;;;;;3.30;2.00;;;;;;;-8.73;100.00;95100.06;5063801;28;21782;-48
2022/01/22 04:39:52;;;;;;;6.03;1.67;;;;;;;-8.63;100.00;95101.97;5065661;28;20075;-48
2022/01/22 04:42:20;;;;;;;2.15;1.67;;;;;;;-8.53;100.00;95100.41;5070713;28;20421;-47
2022/01/22 04:55:36;;;;;;;2.97;2.03;;;;;;;-8.39;100.00;95096.88;5055107;28;19990;-48
2022/01/22 04:58:05;;;;;;;5.90;2.65;;;;;;;-8.26;100.00;95103.47;5064550;28;20080;-48
2022/01/22 05:00:36;;;;;;;3.38;1.88;;;;;;;-8.17;100.00;95106.28;5063516;28;20403;-48
2022/01/22 05:03:23;;;;;;;4.03;1.77;;;;;;;-8.10;100.00;95093.09;5049398;28;20040;-47
2022/01/22 05:05:50;;;;;;;5.85;1.73;;;;;;;-7.94;100.00;95092.78;5064952;28;20540;-47
2022/01/22 05:08:34;;;;;;;3.70;1.58;;;;;;;-7.88;99.88;95097.38;5070251;28;20174;-47
2022/01/22 05:11:08;;;;;;;2.25;2.05;;;;;;;-7.83;99.49;95104.66;5064340;28;20991;-47
2022/01/22 05:13:36;;;;;;;5.05;2.33;;;;;;;-7.76;99.19;95105.00;5068981;28;20087;-48
2022/01/22 05:16:06;;;;;;;3.80;2.50;;;;;;;-7.73;98.63;95100.50;5066581;28;20076;-47
2022/01/22 05:18:40;;;;;;;3.85;1.67;;;;;;;-7.61;98.23;95108.94;5070609;28;20072;-47
2022/01/22 05:21:12;;;;;;;6.82;2.58;;;;;;;-7.53;97.93;95106.63;5063301;28;20131;-48
2022/01/22 05:23:41;;;;;;;10.45;2.33;;;;;;;-7.50;97.71;95106.41;5063551;28;20041;-47
2022/01/22 05:26:24;;;;;;;5.18;2.22;;;;;;;-7.47;97.04;95096.97;5063919;28;20053;-47
2022/01/22 05:37:40;;;;;;;3.33;1.90;;;;;;;-7.34;96.35;95097.69;5063000;28;20049;-49
2022/01/22 05:40:07;;;;;;;81.85;28.98;;;;;;;-7.33;96.51;95101.81;5062545;28;20047;-47
2022/01/22 05:42:36;;;;;;;4.22;2.58;;;;;;;-7.27;96.84;95095.50;5068428;28;20041;-47
2022/01/22 05:45:05;;;;;;;2.20;1.70;;;;;;;-7.24;97.54;95098.59;5063896;28;20102;-48
2022/01/22 05:47:32;;;;;;;3.92;1.83;;;;;;;-7.22;97.70;95096.78;5063085;28;20052;-51
2022/01/22 05:50:01;;;;;;;2.60;1.65;;;;;;;-7.23;97.98;95102.75;5066060;28;20052;-49
2022/01/22 05:52:36;;;;;;;5.22;2.25;;;;;;;-7.18;97.95;95090.56;5073047;28;20044;-47
2022/01/22 06:00:41;;;;;;;4.85;2.58;;;;;;;-7.09;97.83;95089.06;5063207;28;20087;-47
2022/01/22 06:03:22;;;;;;;9.23;3.70;;;;;;;-7.02;97.91;95089.38;5069568;28;20510;-48
2022/01/22 06:05:49;;;;;;;15.38;6.80;;;;;;;-7.05;97.93;95079.50;5062515;28;20044;-47
2022/01/22 06:08:17;;;;;;;16.95;8.02;;;;;;;-6.98;98.09;95085.72;5062582;28;20044;-47
2022/01/22 06:10:47;;;;;;;14.68;6.03;;;;;;;-6.92;98.17;95080.16;5064958;28;20060;-47
2022/01/22 06:13:19;;;;;;;4.95;3.42;;;;;;;-6.89;97.86;95085.00;5065629;28;20052;-47
2022/01/22 06:15:48;;;;;;;8.32;4.05;;;;;;;-6.85;97.98;95086.38;5061647;28;20048;-48
2022/01/22 06:18:35;;;;;;;5.10;2.58;;;;;;;-6.83;97.53;95079.47;5067665;28;20098;-49
2022/01/22 06:21:02;;;;;;;6.00;4.25;;;;;;;-6.78;97.47;95074.84;5062420;28;20052;-48
2022/01/22 06:23:28;;;;;;;11.45;5.88;;;;;;;-6.77;97.99;95070.56;5067294;28;20043;-47
2022/01/22 06:26:00;;;;;;;5.32;3.05;;;;;;;-6.74;97.53;95063.53;5060816;28;20055;-48
2022/01/22 06:28:29;;;;;;;11.55;4.13;;;;;;;-6.66;97.69;95079.88;5061791;28;20048;-48
2022/01/22 06:30:58;;;;;;;9.52;5.15;;;;;;;-6.62;97.79;95081.28;5061357;28;20128;-48
2022/01/22 06:33:27;;;;;;;9.95;5.72;;;;;;;-6.59;97.74;95091.16;5060807;28;20048;-47
2022/01/22 06:35:53;;;;;;;16.25;6.18;;;;;;;-6.63;98.30;95094.84;5061587;28;20048;-49
2022/01/22 06:38:21;;;;;;;8.43;4.85;;;;;;;-6.57;98.58;95089.31;5061520;28;20490;-47
2022/01/22 06:44:25;;;;;;;13.02;5.70;;;;;;;-6.53;99.02;95081.34;5009358;28;20093;-49
2022/01/22 06:47:02;;;;;;;6.80;2.60;;;;;;;-6.51;99.65;95083.75;5077769;28;20047;-47
2022/01/22 06:49:56;;;;;;;5.47;3.30;;;;;;;-6.45;99.84;95068.06;5052236;28;20057;-47
2022/01/22 06:52:41;;;;;;;7.43;2.72;;;;;;;-6.42;99.90;95065.31;5062695;28;20167;-48
2022/01/22 06:55:19;;;;;;;2.15;1.38;;;;;;;-6.30;100.00;95065.25;5061883;28;20473;-50
2022/01/22 06:57:47;;;;;;;6.55;3.67;;;;;;;-6.29;100.00;95057.53;5061457;28;20044;-49
2022/01/22 07:00:24;;;;;;;6.57;3.53;;;;;;;-6.27;100.00;95049.81;5061592;28;20390;-49
2022/01/22 07:03:02;;;;;;;7.20;4.00;;;;;;;-6.34;100.00;95049.47;5062991;28;20095;-48
2022/01/22 07:05:30;;;;;;;12.98;5.50;;;;;;;-6.33;100.00;95050.31;5060101;28;20083;-49
2022/01/22 07:08:10;;;;;;;5.53;3.95;;;;;;;-6.28;100.00;95050.72;5063045;28;20047;-48
2022/01/22 07:10:41;;;;;;;6.47;4.20;;;;;;;-6.19;100.00;95047.47;5060832;28;20043;-47
2022/01/22 07:13:09;;;;;;;8.73;5.90;;;;;;;-6.06;100.00;95043.00;5063731;28;20045;-50
2022/01/22 07:15:36;;;;;;;5.88;3.17;;;;;;;-5.96;100.00;95048.97;5058939;28;20568;-47
2022/01/22 07:18:15;;;;;;;5.57;3.40;;;;;;;-5.98;100.00;95035.59;5053075;28;20041;-48
2022/01/22 07:20:43;;;;;;;4.78;3.90;;;;;;;-6.00;100.00;95041.72;5050311;28;20044;-49
2022/01/22 07:23:17;;;;;;;7.28;4.68;;;;;;;-5.99;100.00;95044.13;5055843;28;20037;-47
2022/01/22 07:25:59;;;;;;;9.77;4.05;;;;;;;-5.96;100.00;95038.81;5060646;28;20045;-49
2022/01/22 07:28:49;;;;;;;7.25;3.65;;;;;;;-5.78;100.00;95036.50;5056910;28;20059;-47
2022/01/22 07:31:20;;;;;;;9.90;3.22;;;;;;;-5.63;100.00;95034.41;5060121;28;20280;-48
2022/01/22 07:33:48;;;;;;;4.13;2.28;;;;;;;-5.35;100.00;95031.31;5060740;28;20051;-47
2022/01/22 07:36:16;;;;;;;5.90;4.03;;;;;;;-5.08;99.62;95038.34;5061146;28;20048;-47
2022/01/22 07:38:44;;;;;;;3.97;2.90;;;;;;;-4.87;98.53;95035.75;5089994;28;20055;-48
2022/01/22 07:41:12;;;;;;;7.72;3.25;;;;;;;-4.74;98.11;95032.94;5062881;28;20155;-48
2022/01/22 07:44:05;;;;;;;7.03;2.05;;;;;;;-4.66;96.63;95026.28;5036132;28;20060;-48
2022/01/22 07:46:44;;;;;;;12.73;4.75;;;;;;;-4.67;95.40;95021.31;5060414;28;20044;-47
2022/01/22 07:49:20;;;;;;;9.18;5.43;;;;;;;-4.65;95.19;95035.50;5061019;28;20051;-47
2022/01/22 07:51:51;;;;;;;12.35;3.78;;;;;;;-4.66;95.55;95022.94;5068040;28;20063;-49
2022/01/22 07:54:21;;;;;;;5.95;4.07;;;;;;;-4.64;95.31;95029.47;5081166;28;20123;-46
2022/01/22 07:56:49;;;;;;;7.75;3.85;;;;;;;-4.91;96.02;95030.13;5063078;28;20067;-49
2022/01/22 07:59:16;;;;;;;5.53;4.07;;;;;;;-4.85;96.55;95024.50;5064437;28;20048;-49
2022/01/22 08:01:51;;;;;;;18.48;6.93;;;;;;;-5.00;96.78;95015.66;5071207;28;21057;-46
2022/01/22 08:04:24;;;;;;;3.60;2.15;;;;;;;-4.99;96.84;95022.34;5069130;28;20072;-47
2022/01/22 08:06:56;;;;;;;4.75;2.15;;;;;;;-4.92;97.50;95018.34;5070152;28;20044;-48
2022/01/22 08:09:29;;;;;;;4.60;3.22;;;;;;;-4.88;98.37;95016.34;5071678;28;20067;-47
2022/01/22 08:12:19;;;;;;;3.65;2.00;;;;;;;-4.80;98.50;95017.28;5059866;28;20064;-47
2022/01/22 08:14:48;;;;;;;13.25;6.28;;;;;;;-4.84;99.21;95028.66;5065315;28;20601;-46
2022/01/22 08:17:15;;;;;;;6.57;2.30;;;;;;;-4.92;100.00;95018.34;5064574;28;20415;-47
2022/01/22 08:19:42;;;;;;;3.30;1.65;;;;;;;-4.83;100.00;95022.63;5062927;28;20040;-47
2022/01/22 08:22:28;;;;;;;3.42;1.95;;;;;;;-4.86;100.00;95014.47;5064898;28;20060;-48
2022/01/22 08:25:14;;;;;;;2.10;1.55;;;;;;;-4.75;100.00;95003.38;5060198;28;20051;-47
2022/01/22 08:30:36;;;;;;;9.77;2.60;;;;;;;-4.52;100.00;94997.13;5074845;28;20036;-47
2022/01/22 08:35:52;;;;;;;5.30;3.58;;;;;;;-4.46;100.00;94991.50;5062153;28;20064;-49
2022/01/22 08:38:29;;;;;;;10.63;6.05;;;;;;;-4.45;100.00;94980.41;5064484;28;20048;-47
2022/01/22 08:40:57;;;;;;;4.85;3.35;;;;;;;-4.46;100.00;94988.94;5070774;28;20078;-46
2022/01/22 08:43:27;;;;;;;6.28;3.95;;;;;;;-4.31;99.51;94986.00;5064676;28;20451;-46
2022/01/22 08:45:55;;;;;;;2.75;2.53;;;;;;;-4.12;97.86;94975.81;5096781;28;20657;-48
2022/01/22 08:48:23;;;;;;;4.25;2.78;;;;;;;-3.90;97.42;94973.88;5063230;28;20048;-47
2022/01/22 08:50:54;;;;;;;1.65;1.48;;;;;;;-3.86;95.29;94970.09;5060044;28;20168;-51
2022/01/22 08:53:42;;;;;;;6.05;2.67;;;;;;;-3.79;94.26;94976.25;5057816;28;20064;-47
2022/01/22 08:56:09;;;;;;;3.70;2.22;;;;;;;-3.82;94.53;94975.72;5056936;28;20055;-49
2022/01/22 08:58:39;;;;;;;2.35;1.88;;;;;;;-3.70;93.45;94977.97;5066666;28;20052;-48
2022/01/22 09:01:09;;;;;;;3.53;2.22;;;;;;;-3.72;93.05;94976.50;5060541;28;20131;-47
2022/01/22 09:03:41;;;;;;;4.82;2.47;;;;;;;-4.05;89.93;94981.94;5061276;28;20454;-47
2022/01/22 09:06:34;;;;;;;3.45;1.42;;;;;;;-4.24;91.48;94954.00;5060402;28;20059;-46
2022/01/22 09:09:25;;;;;;;2.92;1.10;;;;;;;-4.18;90.29;94971.25;5036825;28;20055;-49
2022/01/22 09:11:53;;;;;;;2.30;1.95;;;;;;;-4.19;90.98;94959.47;5061348;28;20063;-53
2022/01/22 09:14:37;;;;;;;4.40;2.28;;;;;;;-4.01;90.92;94962.13;5063539;28;20795;-48
2022/01/22 09:17:05;;;;;;;5.50;2.33;;;;;;;-3.95;91.12;94966.66;5062853;28;20044;-47
2022/01/22 09:19:35;;;;;;;2.17;0.93;;;;;;;-3.86;88.93;94975.19;5062925;28;20123;-47
2022/01/22 09:22:09;;;;;;;3.42;2.13;;;;;;;-3.81;90.55;94970.50;5069592;28;20055;-45
2022/01/22 09:24:37;;;;;;;2.35;1.67;;;;;;;-3.80;89.59;94974.63;5062876;28;20624;-49
2022/01/22 09:27:06;;;;;;;2.80;1.90;;;;;;;-3.74;89.43;94970.75;5061982;28;20046;-50
2022/01/22 09:29:36;;;;;;;0.80;0.65;;;;;;;-3.68;88.51;94958.25;5059942;28;20058;-45
2022/01/22 09:32:04;;;;;;;3.22;1.52;;;;;;;-3.70;88.27;94964.44;5059748;28;20475;-47
2022/01/22 09:34:51;;;;;;;3.10;1.77;;;;;;;-3.69;87.45;94961.75;5030463;28;20044;-46
2022/01/22 09:37:27;;;;;;;3.58;1.85;;;;;;;-3.71;87.58;94945.81;5061115;28;20040;-46
2022/01/22 09:40:06;;;;;;;2.17;1.60;;;;;;;-3.56;86.85;94940.28;5059684;28;20131;-47
2022/01/22 09:42:59;;;;;;;16.15;2.63;;;;;;;-3.47;86.30;94944.50;5065298;28;20130;-47
2022/01/22 09:45:44;;;;;;;3.00;2.28;;;;;;;-3.31;85.27;94933.72;5068396;28;20051;-47
2022/01/22 09:48:39;;;;;;;4.82;2.72;;;;;;;-3.23;86.11;94930.44;5054907;28;20059;-47
2022/01/22 09:51:20;;;;;;;2.70;1.65;;;;;;;-3.23;86.18;94926.13;5060561;28;20043;-50
2022/01/22 09:54:13;;;;;;;2.08;1.35;;;;;;;-3.08;86.23;94928.97;5045220;28;20055;-48
2022/01/22 09:57:02;;;;;;;1.73;1.15;;;;;;;-3.04;84.78;94925.22;5064649;28;20076;-46
2022/01/22 09:59:47;;;;;;;10.82;3.92;;;;;;;-2.85;85.12;94918.38;5061572;28;20056;-46
2022/01/22 10:02:51;;;;;;;8.55;2.28;;;;;;;-2.96;83.47;94927.84;5059266;28;20466;-51
2022/01/22 10:05:41;;;;;;;4.82;1.58;;;;;;;-3.11;82.78;94914.00;5056060;28;21596;-47
2022/01/22 10:08:29;;;;;;;1.52;1.10;;;;;;;-2.93;84.41;94916.56;5060347;28;20067;-45
2022/01/22 10:11:27;;;;;;;4.72;2.17;;;;;;;-2.87;83.27;94905.78;5056789;28;20055;-48
2022/01/22 10:14:20;;;;;;;2.10;1.70;;;;;;;-2.95;82.54;94903.16;5043710;28;20056;-46
2022/01/22 10:16:48;;;;;;;1.30;1.13;;;;;;;-2.90;82.77;94916.25;5049649;28;20051;-46
2022/01/22 10:19:21;;;;;;;2.78;1.80;;;;;;;-2.73;82.60;94896.81;5061569;28;20462;-49
2022/01/22 10:21:57;;;;;;;4.18;2.05;;;;;;;-2.52;83.34;94884.56;5061964;28;20057;-46
2022/01/22 10:29:54;;;;;;;1.23;0.85;;;;;;;-2.53;80.16;94866.84;5066131;28;20134;-47
2022/01/22 10:32:30;;;;;;;5.38;3.22;;;;;;;-2.69;78.78;94887.91;5062358;28;20048;-47
2022/01/22 10:35:17;;;;;;;2.10;1.90;;;;;;;-2.70;81.33;94876.13;5063250;28;20465;-46
2022/01/22 10:38:23;;;;;;;2.55;2.17;;;;;;;-2.80;82.53;94880.50;5062955;28;20098;-48
2022/01/22 10:40:56;;;;;;;1.85;1.45;;;;;;;-2.74;81.40;94874.81;5062613;28;20068;-47
2022/01/22 10:47:03;;;;;;;5.00;3.33;;;;;;;-2.59;79.52;94873.34;5064990;28;20044;-45
2022/01/22 10:49:09;;;;;;;9.60;2.78;;;;;;;-2.83;79.14;94880.78;5053343;28;20079;-46
2022/01/22 10:51:46;;;;;;;2.75;1.55;;;;;;;-2.83;78.87;94871.38;5062116;28;20072;-48
2022/01/22 10:54:15;;;;;;;2.67;1.88;;;;;;;-2.46;79.71;94854.31;5065112;28;20047;-47
2022/01/22 10:56:42;;;;;;;4.75;2.30;;;;;;;-2.12;78.21;94862.78;5063323;28;20037;-49
2022/01/22 10:59:11;;;;;;;1.88;0.85;;;;;;;-2.04;73.96;94840.81;5061603;28;20040;-45
2022/01/22 11:01:53;;;;;;;2.15;1.70;;;;;;;-2.14;75.41;94858.78;5061879;28;20047;-46
2022/01/22 11:04:24;;;;;;;1.58;1.30;;;;;;;-2.10;76.96;94861.84;5064106;28;20044;-50
2022/01/22 11:06:57;;;;;;;1.25;0.98;;;;;;;-2.06;75.92;94858.03;5062848;28;20533;-46
2022/01/22 11:09:45;;;;;;;2.55;1.55;;;;;;;-2.06;77.19;94842.72;5062113;28;20529;-46
2022/01/22 11:12:13;;;;;;;1.98;1.58;;;;;;;-1.99;75.81;94851.38;5062554;28;20122;-48
2022/01/22 11:14:42;;;;;;;6.80;2.53;;;;;;;-1.70;75.71;94852.75;5063873;28;20043;-46
2022/01/22 11:17:09;;;;;;;1.73;1.15;;;;;;;-1.58;74.69;94846.41;5065200;28;20506;-47
2022/01/22 11:19:43;;;;;;;4.38;2.28;;;;;;;-1.95;73.82;94829.69;5063351;28;20048;-46
2022/01/22 11:22:12;;;;;;;2.28;1.27;;;;;;;-1.71;75.57;94833.28;5062313;28;20480;-45
2022/01/22 11:24:47;;;;;;;4.53;2.42;;;;;;;-1.70;74.89;94828.00;5061154;28;20410;-48
2022/01/22 11:27:20;;;;;;;3.22;2.13;;;;;;;-1.68;74.19;94825.31;5061878;28;20045;-47
2022/01/22 11:29:51;;;;;;;6.53;2.88;;;;;;;-1.74;76.67;94827.53;5065538;28;20053;-46
2022/01/22 11:32:26;;;;;;;3.20;2.00;;;;;;;-1.52;75.37;94820.22;5059687;28;20049;-46
2022/01/22 11:34:55;;;;;;;;;;;;;;;-1.44;74.72;94830.50;5061193;28;20055;-47
2022/01/22 11:37:33;;;;;;;3.38;2.08;;;;;;;-1.50;73.40;94809.88;5061726;28;20408;-46
2022/01/22 11:40:22;;;;;;;1.77;1.48;;;;;;;-1.92;75.00;94814.06;5063628;28;20049;-47
2022/01/22 11:43:04;;;;;;;6.38;1.83;;;;;;;-1.99;76.24;94802.88;5062449;28;20040;-47
2022/01/22 11:45:39;;;;;;;3.35;2.00;;;;;;;-2.03;73.77;94811.78;5061422;28;20085;-47
2022/01/22 11:48:20;;;;;;;3.92;1.95;;;;;;;-2.28;75.58;94828.75;5059885;28;20832;-48
2022/01/22 11:50:55;;;;;;;2.03;1.85;;;;;;;-2.43;77.02;94816.53;5063330;28;20063;-49
2022/01/22 11:53:34;;;;;;;5.22;3.50;;;;;;;-2.60;78.87;94825.81;5060533;28;20046;-47
2022/01/22 11:56:26;;;;;;;7.43;3.95;;;;;;;-2.74;81.43;94813.63;5059731;28;20110;-47
2022/01/22 11:58:56;;;;;;;6.25;3.05;;;;;;;-2.81;84.52;94807.53;5060232;28;20043;-47
2022/01/22 12:01:50;;;;;;;2.25;1.92;;;;;;;-2.76;85.56;94815.53;5070165;28;20094;-46
2022/01/22 12:04:26;;;;;;;2.88;2.22;;;;;;;-2.82;85.66;94821.22;5060886;28;20564;-47
2022/01/22 12:07:02;;;;;;;2.38;1.95;;;;;;;-2.95;89.01;94812.22;5061572;28;20512;-47
2022/01/22 12:09:34;;;;;;;1.33;1.13;;;;;;;-2.98;89.78;94809.94;5061742;28;20036;-49
2022/01/22 12:15:13;;;;;;;5.97;2.60;;;;;;;-2.75;92.24;94806.94;5062785;28;20036;-46
2022/01/22 12:17:56;;;;;;;2.70;1.75;;;;;;;-2.80;92.83;94814.22;5060791;28;20403;-50
2022/01/22 12:20:43;;;;;;;4.43;2.22;;;;;;;-2.97;92.70;94829.41;5061771;28;20056;-47
2022/01/22 12:23:15;;;;;;;2.90;2.13;;;;;;;-3.03;93.44;94809.59;5061657;28;20583;-48
2022/01/22 12:25:42;;;;;;;2.08;1.13;;;;;;;-3.23;92.47;94808.16;5060717;28;20052;-47
2022/01/22 12:28:13;;;;;;;2.42;1.83;;;;;;;-3.33;92.20;94803.94;5062208;28;20051;-47
2022/01/22 12:30:47;;;;;;;3.05;2.15;;;;;;;-3.62;94.48;94795.69;5059565;28;20055;-47
2022/01/22 12:33:34;;;;;;;1.83;1.17;;;;;;;-3.58;95.54;94815.66;5059640;28;20045;-47
2022/01/22 12:36:04;;;;;;;4.50;3.00;;;;;;;-3.56;96.21;94818.06;5045878;28;20048;-49
2022/01/22 12:38:48;;;;;;;3.88;2.03;;;;;;;-3.58;97.31;94819.91;5055780;28;20044;-46
2022/01/22 12:44:06;;;;;;;3.38;2.30;;;;;;;-3.83;99.58;94809.50;5058233;28;20045;-50
2022/01/22 12:46:50;;;;;;;3.28;2.97;;;;;;;-3.69;100.00;94818.38;5078142;28;20049;-47
2022/01/22 12:49:17;;;;;;;2.55;1.73;;;;;;;-3.59;99.11;94803.06;5064457;28;20076;-46
2022/01/22 12:51:44;;;;;;;4.90;2.25;;;;;;;-3.51;98.81;94805.66;5060308;28;20044;-47
2022/01/22 12:54:11;;;;;;;5.50;2.92;;;;;;;-3.30;98.99;94813.03;5057764;28;20410;-47
2022/01/22 12:57:05;;;;;;;6.25;2.40;;;;;;;-3.23;95.52;94797.97;5058206;28;20345;-49
2022/01/22 12:59:34;;;;;;;4.78;3.00;;;;;;;-2.88;95.77;94795.38;5061432;28;20044;-48
2022/01/22 13:02:01;;;;;;;4.88;2.03;;;;;;;-2.69;93.48;94796.13;5065830;28;20048;-49
2022/01/22 13:04:28;;;;;;;7.55;1.30;;;;;;;-2.64;92.53;94788.84;5062129;28;20048;-48
2022/01/22 13:07:21;;;;;;;4.80;2.60;;;;;;;-2.32;92.46;94787.44;5055715;28;20055;-48
2022/01/22 13:10:32;;;;;;;0.93;0.73;;;;;;;-2.35;91.52;94785.16;5060451;28;20154;-48
2022/01/22 13:13:01;;;;;;;1.60;1.50;;;;;;;-2.47;90.19;94773.63;5059649;28;20068;-47
2022/01/22 13:15:30;;;;;;;4.20;2.13;;;;;;;-2.81;92.38;94776.94;5060284;28;20082;-47
2022/01/22 13:17:59;;;;;;;5.65;3.10;;;;;;;-2.66;92.90;94774.66;5059237;28;20044;-48
2022/01/22 13:20:32;;;;;;;3.47;2.25;;;;;;;-2.70;92.54;94779.25;5059046;28;20051;-48
2022/01/22 13:23:11;;;;;;;7.07;4.00;;;;;;;-2.81;93.56;94771.84;5060352;28;20045;-50
2022/01/22 13:25:38;;;;;;;3.72;2.38;;;;;;;-2.60;94.65;94774.81;5063141;28;20128;-48
2022/01/22 13:28:10;;;;;;;2.88;2.38;;;;;;;-2.55;93.89;94767.53;5060649;28;20488;-49
2022/01/22 13:30:48;;;;;;;4.95;2.47;;;;;;;-2.52;93.14;94763.88;5062379;28;20044;-48
2022/01/22 13:49:29;;;;;;;5.72;2.65;;;;;;;-2.73;90.11;94769.34;5057257;28;20102;-47
2022/01/22 13:52:01;;;;;;;3.63;1.77;;;;;;;-2.77;90.43;94768.84;5055629;28;20041;-47
2022/01/22 13:54:35;;;;;;;6.57;2.08;;;;;;;-2.80;90.41;94760.69;5058242;28;20041;-46
2022/01/22 13:57:08;;;;;;;2.80;2.10;;;;;;;-2.75;90.50;94759.28;5057749;28;21478;-49
2022/01/22 13:59:42;;;;;;;1.70;1.53;;;;;;;-2.90;89.50;94759.06;5061881;28;20548;-48
2022/01/22 14:04:54;;;;;;;1.50;1.23;;;;;;;-3.00;90.61;94748.16;5063537;28;20037;-46
2022/01/22 14:07:24;;;;;;;3.88;2.20;;;;;;;-3.07;90.76;94752.22;5063693;28;20583;-48
2022/01/22 14:09:54;;;;;;;2.08;1.20;;;;;;;-3.05;90.06;94747.78;5063342;28;20044;-48
2022/01/22 14:12:24;;;;;;;4.22;1.88;;;;;;;-3.08;89.35;94745.53;5061622;28;20044;-46
2022/01/22 14:15:00;;;;;;;8.60;3.72;;;;;;;-3.07;90.27;94742.03;5058098;28;20478;-46
2022/01/22 14:17:37;;;;;;;3.08;1.42;;;;;;;-3.10;88.81;94743.16;5062357;28;20494;-46